Ellenburg Center, New York
Current Conditions -  °F | °C
As of 4:53 PM on Sunday 21 Dec 2014 (Local Time) from KPBG Reporting Station
Haze Haze  
Wind Chill: 11°   Ceiling: 1100
Heat Index: 20°   Visibility: 6mi
Dew Point: 17°   Wind: 7mph
Humidity: 89%   Direction: 350°N
Pressure: 30.36"   Gusts: NA
Location:  44.86°N, 73.9°W
Report Text: KPBG 212153Z AUTO 35006KT 6SM BR BKN011 OVC031 M07/M08 A3036 RMK AO2 SLP286 T10671083
Loading
Personal Weather Stations






























Interactive Weather Map New forecast layout! Learn more

10-Day Weather Forecast

Advertisements
Track Severe Weather on mobile